• Join FlightAware (Why Join?)
  • Login
  • US Flag 
11:10AM EDT


 

Airport Tracker/Info


-or-


 

Live Flight TrackerFlight Track Log ✈ AWE2791 ✈ 25-Aug-2013 ✈ KMHT - KCLT

Flight Track Log - Related Links

Times and Time Zones

All times are in EDT time to prevent confusion due to time zone crossing. See the AWE2791 flight status page for this flight to view local times or setup timezone preferences in your user account.

Time Position Orientation Groundspeed Altitude Reporting Facility
EDT Latitude Longitude Course Direction KTS MPH feet Rate Location/Type
08:17AM 42.9500 -71.4167 25° Northeast 151 174 1,100  Level KA90
08:19AM 43.0019 -71.3839 25° Northeast 224 258 3,600 2,160 Climbing Boston Center
08:20AM 43.0431 -71.3294 44° Northeast 218 251 5,800 2,160 Climbing Boston Center
08:21AM 43.0461 -71.2242 88° East 236 272 8,000 2,280 Climbing Boston Center
08:22AM 43.0597 -71.1217 80° East 281 323 10,500 2,220 Climbing Boston Center
08:23AM 43.0728 -70.9906 82° East 306 352 12,500 2,040 Climbing Boston Center
08:24AM 43.0092 -70.9069 136° Southeast 299 344 14,600 2,160 Climbing Boston Center
08:25AM 42.9008 -70.9236 186° South 288 331 16,900 1,680 Climbing Boston Center
08:26AM 42.8097 -70.9683 200° South 346 398 18,100 1,380 Climbing Boston Center
08:27AM 42.6981 -71.0247 200° South 386 444 19,800 1,620 Climbing Boston Center
08:28AM 42.5881 -71.0808 201° Southwest 409 471 21,400 1,620 Climbing Boston Center
08:29AM 42.4761 -71.1311 198° South 422 486 23,100 1,260 Climbing Boston Center
08:30AM 42.3942 -71.2425 225° Southwest 419 482 24,000 420 Climbing Boston Center
08:31AM 42.3497 -71.3978 249° West 416 479 24,000  Level Boston Center
08:32AM 42.3031 -71.5475 247° West 423 487 24,000  Level Boston Center
08:33AM 42.2561 -71.6828 245° Southwest 435 501 24,000  Level Boston Center
08:34AM 42.2111 -71.8347 248° West 441 507 24,000  Level Boston Center
08:35AM 42.1639 -71.9836 247° West 441 507 24,000  Level Boston Center
08:36AM 42.1167 -72.1350 247° West 441 507 24,000  Level Boston Center
08:37AM 42.0689 -72.2806 246° West 436 502 24,000  Level Boston Center
08:38AM 42.0231 -72.4289 247° West 436 502 24,000  Level Boston Center
08:39AM 41.9753 -72.5797 247° West 436 502 24,000  Level Boston Center
08:40AM 41.9125 -72.7247 240° Southwest 424 488 24,000  Level Boston Center
08:41AM 41.8286 -72.8469 227° Southwest 431 496 24,000  Level Boston Center
08:42AM 41.7386 -72.9686 225° Southwest 450 518 24,000  Level Boston Center
08:43AM 41.6525 -73.0819 225° Southwest 450 518 24,000  Level Boston Center
08:44AM 41.5664 -73.1975 225° Southwest 450 518 24,000  Level Boston Center
08:45AM 41.4842 -73.3131 226° Southwest 440 506 24,000  Level Boston Center
08:46AM 41.3978 -73.4281 225° Southwest 440 506 24,000  Level Boston Center
08:47AM 41.3092 -73.5456 225° Southwest 440 506 24,000  Level Boston Center
08:48AM 41.1997 -73.7217 230° Southwest 441 507 24,000  Level New York Center
08:49AM 41.1169 -73.8614 232° Southwest 447 514 24,000  Level New York Center
08:50AM 41.0428 -73.9872 232° Southwest 447 514 24,000  Level New York Center
08:51AM 40.9664 -74.1125 231° Southwest 447 514 24,000  Level New York Center
08:52AM 40.8967 -74.2189 229° Southwest 442 509 24,000  Level New York Center
08:53AM 40.8219 -74.3469 232° Southwest 442 509 24,000  Level New York Center
08:54AM 40.7494 -74.4717 233° Southwest 442 509 24,000  Level New York Center
08:55AM 40.6725 -74.5989 231° Southwest 442 509 24,000  Level New York Center
08:56AM 40.6000 -74.7150 231° Southwest 437 503 24,000  Level New York Center
08:57AM 40.5297 -74.8147 227° Southwest 408 470 24,000  Level New York Center
08:58AM 40.4575 -74.9197 228° Southwest 395 455 24,000  Level New York Center
08:59AM 40.3872 -75.0217 228° Southwest 390 449 24,000  Level New York Center
09:00AM 40.3147 -75.1208 226° Southwest 384 442 24,000  Level New York Center
09:01AM 40.2442 -75.2222 228° Southwest 384 442 24,000  Level New York Center
09:02AM 40.1736 -75.3239 228° Southwest 384 442 24,000  Level New York Center
09:03AM 40.0856 -75.4428 226° Southwest 390 449 24,000  Level New York Center
09:04AM 40.0017 -75.5592 227° Southwest 416 479 24,000  Level New York Center
09:05AM 39.9178 -75.6753 227° Southwest 436 502 24,000  Level New York Center
09:07AM 39.7819 -75.8886 230° Southwest 431 496 24,000  Level Washington Center
09:08AM 39.7086 -76.0094 232° Southwest 431 496 24,000  Level Washington Center
09:09AM 39.6333 -76.1303 231° Southwest 431 496 24,000  Level Washington Center
09:10AM 39.5575 -76.2511 231° Southwest 431 496 24,000  Level Washington Center
09:11AM 39.4778 -76.3658 228° Southwest 431 496 24,000  Level Washington Center
09:12AM 39.4019 -76.4858 231° Southwest 431 496 24,000  Level Washington Center
09:13AM 39.3133 -76.6189 229° Southwest 436 502 24,000  Level Washington Center
09:14AM 39.2519 -76.7172 231° Southwest 436 502 24,000  Level Washington Center
09:15AM 39.1589 -76.8631 231° Southwest 441 507 24,000  Level Washington Center
09:16AM 39.0911 -76.9717 231° Southwest 441 507 24,000  Level Washington Center
09:17AM 39.0042 -77.0822 225° Southwest 441 507 24,000  Level Washington Center
09:18AM 38.9111 -77.1842 220° Southwest 441 507 24,000  Level Washington Center
09:19AM 38.8181 -77.2861 220° Southwest 441 507 24,000  Level Washington Center
09:20AM 38.7269 -77.3878 221° Southwest 446 513 24,000  Level Washington Center
09:21AM 38.6336 -77.4867 220° Southwest 446 513 24,000  Level Washington Center
09:22AM 38.5383 -77.5903 220° Southwest 446 513 24,000  Level Washington Center
09:23AM 38.4469 -77.6914 221° Southwest 440 506 24,000  Level Washington Center
09:24AM 38.3533 -77.7919 220° Southwest 440 506 24,000  Level Washington Center
09:25AM 38.2575 -77.8922 219° Southwest 440 506 24,000  Level Washington Center
09:26AM 38.1658 -77.9925 221° Southwest 440 506 24,000  Level Washington Center
09:27AM 38.0636 -78.1000 220° Southwest 440 506 24,000  Level Washington Center
09:28AM 37.9867 -78.1947 224° Southwest 433 498 24,000  Level Washington Center
09:29AM 37.8981 -78.3261 230° Southwest 433 498 24,000  Level Washington Center
09:30AM 37.8183 -78.4414 229° Southwest 439 505 24,000  Level Washington Center
09:31AM 37.7383 -78.5539 228° Southwest 439 505 24,000  Level Washington Center
09:32AM 37.6561 -78.6739 229° Southwest 444 511 24,000  Level Washington Center
09:33AM 37.5825 -78.7733 227° Southwest 444 511 24,000  Level Washington Center
09:34AM 37.5044 -78.8878 229° Southwest 449 517 24,000  Level Washington Center
09:35AM 37.4197 -79.0044 228° Southwest 449 517 24,000  Level Washington Center
09:36AM 37.3372 -79.1183 228° Southwest 449 517 24,000  Level Washington Center
09:37AM 37.2525 -79.2317 227° Southwest 449 517 24,000  Level Washington Center
09:38AM 37.1411 -79.3281 215° Southwest 454 522 24,000  Level Washington Center
09:39AM 37.0575 -79.3969 213° Southwest 454 522 24,000  Level Washington Center
09:40AM 36.9372 -79.5000 214° Southwest 454 522 24,000  Level Washington Center
09:41AM 36.8322 -79.5856 213° Southwest 454 522 24,000  Level Washington Center
09:42AM 36.7292 -79.6686 213° Southwest 454 522 24,000  Level Washington Center
09:43AM 36.6347 -79.7464 213° Southwest 454 522 24,000  Level Washington Center
09:44AM 36.5061 -79.8469 212° Southwest 454 522 24,000  Level Atlanta Center
09:45AM 36.4044 -79.9294 213° Southwest 454 522 24,000 -360 Level Atlanta Center
09:46AM 36.3111 -80.0064 214° Southwest 454 522 23,300 -900 Descending Atlanta Center
09:47AM 36.2158 -80.0883 215° Southwest 446 513 22,300 -1,200 Descending Atlanta Center
09:48AM 36.1225 -80.1675 214° Southwest 428 493 21,000 -1,800 Descending Atlanta Center
09:49AM 36.0250 -80.2517 215° Southwest 403 464 18,700 -1,740 Descending Atlanta Center
09:50AM 35.9558 -80.3089 214° Southwest 392 451 17,600 -1,440 Descending Atlanta Center
09:51AM 35.8828 -80.3764 217° Southwest 358 412 16,300 -1,680 Descending Atlanta Center
09:52AM 35.8033 -80.4464 216° Southwest 326 375 14,600 -1,620 Descending Atlanta Center
09:53AM 35.7097 -80.5222 213° Southwest 332 382 12,600 -1,680 Descending Atlanta Center
09:54AM 35.6606 -80.5625 214° Southwest 313 360 11,400 -840 Descending Atlanta Center
09:55AM 35.5772 -80.6325 214° Southwest 306 352 11,100 -420 Descending Atlanta Center
09:56AM 35.4975 -80.6997 214° Southwest 320 368 10,500 -540 Descending Atlanta Center
09:57AM 35.4444 -80.7450 215° Southwest 306 352 10,100 -240 Descending Atlanta Center
09:58AM 35.3772 -80.7961 212° Southwest 301 346 10,100 -300 Level Atlanta Center
09:59AM 35.2947 -80.8403 204° Southwest 283 326 9,600 -540 Descending Atlanta Center
10:00AM 35.2217 -80.8353 177° South 251 289 9,000 -960 Descending Atlanta Center
10:01AM 35.1506 -80.8306 177° South 246 283 7,700 -1,680 Descending Atlanta Center
10:02AM 35.0836 -80.8281 178° South 235 270 5,700 -1,800 Descending Atlanta Center
10:03AM 35.0189 -80.8228 176° South 233 268 4,100 -840 Descending Atlanta Center
10:04AM 34.9497 -80.8156 175° South 231 266 4,100  Level Atlanta Center
10:05AM 34.8897 -80.8253 188° South 238 274 4,100  Level Atlanta Center
10:06AM 34.8767 -80.8942 257° West 198 228 4,100  Level Atlanta Center
10:07AM 34.9069 -80.9311 315° West 172 198 4,100  Level Atlanta Center
10:08AM 34.9633 -80.9342 357° North 168 193 4,100  Level Atlanta Center
10:09AM 35.0114 -80.9372 357° North 172 198 4,100 -360 Level Atlanta Center
10:10AM 35.0658 -80.9403 357° North 173 199 3,400 -780 Descending Atlanta Center
10:11AM 35.1139 -80.9461 354° North 172 198 2,500 -840 Descending Atlanta Center
10:12AM 35.1494 -80.9500 355° North 153 176 1,800 -780 Descending Atlanta Center
10:13AM 35.1892 -80.9508 359° North 136 157 1,000 -840 Descending Atlanta Center